Saint Kitts, Saint Kitts and Nevis

9:31 PM AST on September 02, 2015 (GMT -0400)
Robert L Bradshaw International | | Change Station
CLOSE
Current Station
Airport
Location: St. Kitts,
Elevation: 157 ft
Nearby Weather Stations

Elev 157 ft 17.30 °N, 62.68 °W | Updated 31 minutes ago

Scattered Clouds
Scattered Clouds
79 °F
Feels Like 79 °F
N
6
Wind Variable Wind from NE

Today
High -- | Low -- °F
--% Chance of Precip.
Yesterday
High -- | Low -- °F
Precip. -- in
5:57 AM 6:23 PM
Waning Gibbous, 75% visible
Pressure 30.01 in
Visibility 6.2 miles
Clouds Scattered Clouds 1700 ft
Dew Point 77 °F
Humidity 94%
Rainfall 0.00 in
Snow Depth Not available.
UV 0 out of 12
Pollen Not available.
Air Quality Not available.
Flu Activity Not available.
METAR TKPK 030100Z 04005KT 9999 SCT017 26/25 Q1016
Pressure 30.01 in
Visibility 6.2 miles
Clouds Scattered Clouds 1700 ft
Dew Point 77 °F
Humidity 94%
Rainfall 0.00 in
Snow Depth Not available.
UV 0 out of 12
Pollen Not available.
Air Quality Not available.
Flu Activity Not available.
METAR TKPK 030100Z 04005KT 9999 SCT017 26/25 Q1016

10-Day Weather Forecast

×

Almanac

Astronomy

Sep. 02, 2015 Rise Set
Actual Time
Civil Twilight
Nautical Twilight
Astronomical Twilight
Moon
Length of Visible Light
Length of Day
Tomorrow will be .
, % of the Moon is Illuminated

Today's Extremes

Country Highs Country Lows

Community

WunderPhotos

Upload Photos

1,851,868 photos uploaded!

WunderBlogs® & News

Nearby

Air Quality

  Air Quality AQ Index Pollutant
Not available.

Snow Depth

Station Depth Elevation

Earthquake Activity

City Distance Mag. Time & Date
Minimum magnitude displayed is 2.5.

Coastal Water Temperatures

Place Temperature

Stations

Nearby Weather Stations

Station Location Temp. Windchill Dew Point Humidity Wind Precip. Elev Updated Type